ADDS METAR Data INFO
IDs: Format: Raw Decoded Include TAF

Data at: 1245 UTC 19 Oct 2017

KMQJ 191234Z AUTO 19006KT 10SM CLR 09/08 A3018 RMK AO1
KMQJ 191215Z AUTO 19004KT 10SM CLR 08/08 A3018 RMK AO1
KMQJ 191155Z AUTO 19006KT 10SM CLR 08/08 A3018 RMK AO1
KMQJ 191134Z AUTO 18007KT 10SM CLR 08/08 A3018 RMK AO1
KMQJ 191115Z AUTO 19006KT 10SM CLR 08/08 A3018 RMK AO1
KMQJ 191055Z AUTO 19005KT 10SM CLR 08/08 A3018 RMK AO1
KMQJ 191034Z AUTO 19005KT 10SM CLR 08/08 A3017 RMK AO1
KMQJ 191015Z AUTO 18006KT 10SM CLR 08/08 A3017 RMK AO1
KMQJ 190955Z AUTO 18005KT 10SM CLR 08/08 A3017 RMK AO1
KMQJ 190935Z AUTO 18007KT 10SM CLR 09/08 A3017 RMK AO1
KMQJ 190915Z AUTO 18006KT 10SM CLR 09/08 A3016 RMK AO1
KMQJ 190855Z AUTO 18007KT 10SM CLR 09/08 A3017 RMK AO1
KMQJ 190835Z AUTO 18006KT 10SM CLR 09/08 A3018 RMK AO1
KMQJ 190815Z AUTO 18006KT 10SM CLR 09/08 A3017 RMK AO1
KMQJ 190755Z AUTO 18005KT 10SM CLR 09/08 A3018 RMK AO1
KMQJ 190734Z AUTO 18005KT 10SM CLR 09/08 A3018 RMK AO1
KMQJ 190715Z AUTO 18005KT 10SM CLR 09/08 A3017 RMK AO1
KMQJ 190655Z AUTO 18005KT 10SM CLR 09/08 A3017 RMK AO1
KMQJ 190634Z AUTO 18004KT 10SM CLR 09/08 A3017 RMK AO1
KMQJ 190615Z AUTO 17005KT 10SM CLR 09/08 A3017 RMK AO1
KMQJ 190555Z AUTO 17005KT 10SM CLR 09/08 A3018 RMK AO1
KMQJ 190535Z AUTO 18004KT 10SM CLR 09/08 A3017 RMK AO1
KMQJ 190515Z AUTO 17004KT 10SM CLR 09/08 A3017 RMK AO1
KMQJ 190455Z AUTO 18004KT 10SM CLR 10/08 A3017 RMK AO1
KMQJ 190434Z AUTO 18004KT 10SM CLR 10/08 A3018 RMK AO1
KMQJ 190415Z AUTO 17003KT 10SM CLR 10/08 A3018 RMK AO1
KMQJ 190355Z AUTO 17003KT 10SM CLR 10/08 A3018 RMK AO1
KMQJ 190335Z AUTO 18004KT 10SM CLR 11/08 A3017 RMK AO1
KMQJ 190315Z AUTO 19004KT 10SM CLR 11/08 A3017 RMK AO1
KMQJ 190255Z AUTO 19004KT 10SM CLR 11/09 A3017 RMK AO1
KMQJ 190235Z AUTO 19005KT 10SM CLR 12/09 A3017 RMK AO1
KMQJ 190215Z AUTO 19004KT 10SM CLR 12/09 A3017 RMK AO1
KMQJ 190155Z AUTO 19005KT 10SM CLR 12/09 A3017 RMK AO1
KMQJ 190135Z AUTO 19006KT 10SM CLR 13/09 A3017 RMK AO1
KMQJ 190115Z AUTO 19004KT 10SM CLR 13/08 A3017 RMK AO1
KMQJ 190055Z AUTO 19005KT 10SM CLR 13/08 A3017 RMK AO1
KMQJ 190034Z AUTO 19004KT 10SM CLR 13/08 A3018 RMK AO1
KMQJ 190015Z AUTO 19005KT 10SM CLR 14/08 A3017 RMK AO1
KMQJ 182354Z AUTO 19005KT 10SM CLR 15/09 A3017 RMK AO1
KMQJ 182335Z AUTO 19005KT 10SM CLR 16/09 A3017 RMK AO1
KMQJ 182315Z AUTO 19004KT 10SM CLR 16/09 A3017 RMK AO1
KMQJ 182255Z AUTO 18005KT 10SM CLR 17/09 A3017 RMK AO1
KMQJ 182235Z AUTO 20005KT 10SM CLR 19/09 A3017 RMK AO1
KMQJ 182214Z AUTO 20009KT 10SM CLR 19/09 A3017 RMK AO1
KMQJ 182155Z AUTO 20008KT 10SM CLR 20/09 A3017 RMK AO1
KMQJ 182135Z AUTO 19006KT 10SM CLR 20/09 A3018 RMK AO1
KMQJ 182114Z AUTO 19007KT 10SM CLR 20/09 A3018 RMK AO1
KMQJ 182055Z AUTO 20008KT 10SM CLR 21/09 A3018 RMK AO1
KMQJ 182035Z AUTO 19009KT 10SM CLR 21/09 A3019 RMK AO1
KMQJ 182014Z AUTO 21010G15KT 10SM CLR 20/09 A3019 RMK AO1
KMQJ 181955Z AUTO 22011G19KT 10SM CLR 21/09 A3020 RMK AO1
KMQJ 181935Z AUTO 20007G15KT 180V240 10SM CLR 20/09 A3020 RMK AO1
KMQJ 181914Z AUTO 23010KT 10SM CLR 20/09 A3021 RMK AO1
KMQJ 181855Z AUTO 23010G15KT 10SM CLR 20/09 A3022 RMK AO1
KMQJ 181835Z AUTO 22010G16KT 10SM CLR 20/09 A3023 RMK AO1
KMQJ 181815Z AUTO 19006KT 10SM CLR 20/08 A3023 RMK AO1
KMQJ 181754Z AUTO 22009KT 10SM CLR 19/09 A3024 RMK AO1
KMQJ 181735Z AUTO 21008KT 10SM CLR 19/09 A3025 RMK AO1
KMQJ 181715Z AUTO 22007KT 10SM CLR 19/09 A3027 RMK AO1
KMQJ 181654Z AUTO 22006KT 10SM CLR 18/09 A3027 RMK AO1
KMQJ 181635Z AUTO 21010KT 10SM CLR 18/09 A3028 RMK AO1
KMQJ 181615Z AUTO 21007KT 10SM CLR 18/09 A3029 RMK AO1
KMQJ 181554Z AUTO 23008KT 10SM CLR 17/09 A3029 RMK AO1
KMQJ 181535Z AUTO 20007KT 10SM CLR 16/09 A3029 RMK AO1
KMQJ 181515Z AUTO 20005KT 10SM CLR 15/09 A3029 RMK AO1
KMQJ 181454Z AUTO 21007KT 10SM CLR 14/09 A3029 RMK AO1
KMQJ 181435Z AUTO 20004KT 10SM CLR 13/09 A3029 RMK AO1
KMQJ 181415Z AUTO 17006KT 10SM CLR 12/09 A3029 RMK AO1
KMQJ 181355Z AUTO 17003KT 10SM CLR 11/09 A3029 RMK AO1
KMQJ 181335Z AUTO 18006KT 10SM CLR 10/08 A3029 RMK AO1
KMQJ 181315Z AUTO 17004KT 10SM CLR 09/08 A3029 RMK AO1
KMQJ 181255Z AUTO 15005KT 10SM CLR 07/07 A3029 RMK AO1
KMQJ 181235Z AUTO 16005KT 10SM CLR 06/06 A3028 RMK AO1
KMQJ 181214Z AUTO 15005KT 10SM CLR 05/05 A3028 RMK AO1
KMQJ 181155Z AUTO 15004KT 10SM CLR 05/05 A3028 RMK AO1
KMQJ 181134Z AUTO 15004KT 10SM CLR 05/05 A3028 RMK AO1
KMQJ 181115Z AUTO 15004KT 10SM CLR 05/05 A3028 RMK AO1
KMQJ 181054Z AUTO 15003KT 10SM CLR 05/05 A3027 RMK AO1
KMQJ 181035Z AUTO 14004KT 10SM CLR 05/05 A3027 RMK AO1
KMQJ 181015Z AUTO 14004KT 10SM CLR 06/06 A3027 RMK AO1
KMQJ 180955Z AUTO 15005KT 10SM CLR 05/05 A3026 RMK AO1
KMQJ 180934Z AUTO 15004KT 10SM CLR 05/05 A3026 RMK AO1
KMQJ 180915Z AUTO 15004KT 10SM CLR 05/05 A3026 RMK AO1
KMQJ 180855Z AUTO 15004KT 10SM CLR 06/06 A3026 RMK AO1
KMQJ 180834Z AUTO 15004KT 10SM CLR 06/06 A3025 RMK AO1
KMQJ 180815Z AUTO 15005KT 10SM CLR 05/05 A3026 RMK AO1
KMQJ 180755Z AUTO 16004KT 10SM CLR 06/06 A3025 RMK AO1
KMQJ 180734Z AUTO 15005KT 10SM CLR 06/06 A3025 RMK AO1
KMQJ 180715Z AUTO 15004KT 10SM CLR 05/05 A3026 RMK AO1
KMQJ 180655Z AUTO 15004KT 10SM CLR 06/06 A3025 RMK AO1
KMQJ 180634Z AUTO 17004KT 10SM CLR 06/06 A3025 RMK AO1
KMQJ 180615Z AUTO 17004KT 10SM CLR 06/06 A3025 RMK AO1
KMQJ 180554Z AUTO 17004KT 10SM CLR 07/06 A3025 RMK AO1
KMQJ 180535Z AUTO 17004KT 10SM CLR 07/06 A3025 RMK AO1
KMQJ 180514Z AUTO 18003KT 10SM CLR 08/06 A3025 RMK AO1
KMQJ 180455Z AUTO 19004KT 10SM CLR 08/06 A3025 RMK AO1
KMQJ 180435Z AUTO 19005KT 10SM CLR 08/06 A3025 RMK AO1
KMQJ 180414Z AUTO 18005KT 10SM CLR 08/06 A3026 RMK AO1
KMQJ 180355Z AUTO 19005KT 10SM CLR 08/06 A3026 RMK AO1
KMQJ 180335Z AUTO 18004KT 10SM CLR 08/06 A3026 RMK AO1
KMQJ 180314Z AUTO 17005KT 10SM CLR 08/06 A3027 RMK AO1
KMQJ 180255Z AUTO 17004KT 10SM CLR 09/06 A3027 RMK AO1
KMQJ 180235Z AUTO 17004KT 10SM CLR 09/06 A3027 RMK AO1
KMQJ 180214Z AUTO 18004KT 10SM CLR 10/06 A3026 RMK AO1
KMQJ 180155Z AUTO 19004KT 10SM CLR 10/06 A3026 RMK AO1
KMQJ 180135Z AUTO 17004KT 10SM CLR 11/06 A3026 RMK AO1
KMQJ 180114Z AUTO 21005KT 10SM CLR 12/06 A3026 RMK AO1
KMQJ 180055Z AUTO 20004KT 10SM CLR 12/06 A3025 RMK AO1